sensor_id;sensor_type;location;lat;lon;timestamp;pressure;altitude;pressure_sealevel;temperature;humidity
25759;BME280;13604;52.496;13.456;2023-03-04T00:00:56;101459.84;;;0.51;100.00
25759;BME280;13604;52.496;13.456;2023-03-04T00:03:21;101462.41;;;0.51;100.00
25759;BME280;13604;52.496;13.456;2023-03-04T00:05:47;101444.97;;;0.38;100.00
25759;BME280;13604;52.496;13.456;2023-03-04T00:08:12;101463.19;;;0.41;100.00
25759;BME280;13604;52.496;13.456;2023-03-04T00:10:37;101458.50;;;0.46;100.00
25759;BME280;13604;52.496;13.456;2023-03-04T00:13:03;101448.88;;;0.43;100.00
25759;BME280;13604;52.496;13.456;2023-03-04T00:15:28;101421.53;;;0.52;100.00
25759;BME280;13604;52.496;13.456;2023-03-04T00:17:53;101438.25;;;0.66;100.00
25759;BME280;13604;52.496;13.456;2023-03-04T00:20:19;101441.88;;;0.68;100.00
25759;BME280;13604;52.496;13.456;2023-03-04T00:22:44;101435.50;;;0.73;100.00
25759;BME280;13604;52.496;13.456;2023-03-04T00:25:09;101431.28;;;0.83;99.53
25759;BME280;13604;52.496;13.456;2023-03-04T00:27:34;101439.22;;;0.95;99.29
25759;BME280;13604;52.496;13.456;2023-03-04T00:30:00;101429.53;;;1.01;98.76
25759;BME280;13604;52.496;13.456;2023-03-04T00:32:25;101438.00;;;1.00;98.65
25759;BME280;13604;52.496;13.456;2023-03-04T00:34:50;101429.34;;;1.08;98.52
25759;BME280;13604;52.496;13.456;2023-03-04T00:37:16;101430.13;;;1.07;98.31
25759;BME280;13604;52.496;13.456;2023-03-04T00:39:41;101359.03;;;0.78;97.33
25759;BME280;13604;52.496;13.456;2023-03-04T00:42:06;101432.50;;;1.14;97.51
25759;BME280;13604;52.496;13.456;2023-03-04T00:44:32;101404.34;;;1.05;97.73
25759;BME280;13604;52.496;13.456;2023-03-04T00:46:57;101425.38;;;1.20;97.27
25759;BME280;13604;52.496;13.456;2023-03-04T00:49:22;101398.56;;;1.08;96.93
25759;BME280;13604;52.496;13.456;2023-03-04T00:51:48;101420.41;;;1.22;97.15
25759;BME280;13604;52.496;13.456;2023-03-04T00:54:13;101392.09;;;1.03;97.20
25759;BME280;13604;52.496;13.456;2023-03-04T00:56:38;101413.75;;;1.24;96.57
25759;BME280;13604;52.496;13.456;2023-03-04T00:59:04;101394.63;;;1.12;96.83
25759;BME280;13604;52.496;13.456;2023-03-04T01:01:29;101408.47;;;1.22;96.55
25759;BME280;13604;52.496;13.456;2023-03-04T01:03:54;101404.72;;;1.19;96.07
25759;BME280;13604;52.496;13.456;2023-03-04T01:06:19;101399.09;;;1.23;96.10
25759;BME280;13604;52.496;13.456;2023-03-04T01:08:45;101405.41;;;1.26;95.59
25759;BME280;13604;52.496;13.456;2023-03-04T01:11:10;101401.50;;;1.21;96.12
25759;BME280;13604;52.496;13.456;2023-03-04T01:13:36;101401.19;;;1.27;95.98
25759;BME280;13604;52.496;13.456;2023-03-04T01:16:01;101393.66;;;1.20;95.88
25759;BME280;13604;52.496;13.456;2023-03-04T01:18:27;101372.16;;;1.09;95.99
25759;BME280;13604;52.496;13.456;2023-03-04T01:20:53;101386.91;;;1.20;96.01
25759;BME280;13604;52.496;13.456;2023-03-04T01:23:18;101379.88;;;1.28;95.82
25759;BME280;13604;52.496;13.456;2023-03-04T01:25:43;101377.31;;;1.28;95.42
25759;BME280;13604;52.496;13.456;2023-03-04T01:28:09;101369.91;;;1.31;95.91
25759;BME280;13604;52.496;13.456;2023-03-04T01:30:35;101342.56;;;1.13;95.59
25759;BME280;13604;52.496;13.456;2023-03-04T01:33:00;101368.53;;;1.35;94.90
25759;BME280;13604;52.496;13.456;2023-03-04T01:35:26;101375.75;;;1.39;94.58
25759;BME280;13604;52.496;13.456;2023-03-04T01:37:51;101341.41;;;1.28;94.86
25759;BME280;13604;52.496;13.456;2023-03-04T01:40:16;101368.47;;;1.43;94.95
25759;BME280;13604;52.496;13.456;2023-03-04T01:42:42;101371.19;;;1.45;94.35
25759;BME280;13604;52.496;13.456;2023-03-04T01:45:11;101358.81;;;1.41;94.83
25759;BME280;13604;52.496;13.456;2023-03-04T01:47:38;101367.66;;;1.53;94.81
25759;BME280;13604;52.496;13.456;2023-03-04T01:50:06;101363.56;;;1.55;95.07
25759;BME280;13604;52.496;13.456;2023-03-04T01:52:35;101365.47;;;1.58;94.47
25759;BME280;13604;52.496;13.456;2023-03-04T01:55:08;101326.31;;;1.50;94.42
25759;BME280;13604;52.496;13.456;2023-03-04T01:57:38;101350.94;;;1.67;94.28
25759;BME280;13604;52.496;13.456;2023-03-04T02:00:26;101344.25;;;1.69;94.61
25759;BME280;13604;52.496;13.456;2023-03-04T02:02:55;101347.25;;;1.74;94.19
25759;BME280;13604;52.496;13.456;2023-03-04T02:05:21;101336.91;;;1.63;94.39
25759;BME280;13604;52.496;13.456;2023-03-04T02:07:48;101320.63;;;1.63;94.40
25759;BME280;13604;52.496;13.456;2023-03-04T02:10:14;101342.66;;;1.80;94.51
25759;BME280;13604;52.496;13.456;2023-03-04T02:12:39;101309.97;;;1.69;94.04
25759;BME280;13604;52.496;13.456;2023-03-04T02:15:06;101316.44;;;1.74;94.54
25759;BME280;13604;52.496;13.456;2023-03-04T02:17:32;101327.16;;;1.89;94.60
25759;BME280;13604;52.496;13.456;2023-03-04T02:22:22;101327.44;;;1.92;94.27
25759;BME280;13604;52.496;13.456;2023-03-04T02:24:53;101335.69;;;1.98;94.71
25759;BME280;13604;52.496;13.456;2023-03-04T02:27:21;101325.28;;;1.96;94.81
25759;BME280;13604;52.496;13.456;2023-03-04T02:29:46;101318.34;;;1.95;94.75
25759;BME280;13604;52.496;13.456;2023-03-04T02:32:12;101302.91;;;1.95;95.06
25759;BME280;13604;52.496;13.456;2023-03-04T02:34:44;101309.34;;;2.00;95.32
25759;BME280;13604;52.496;13.456;2023-03-04T02:37:10;101301.72;;;2.11;94.94
25759;BME280;13604;52.496;13.456;2023-03-04T02:39:40;101299.44;;;2.14;94.61
25759;BME280;13604;52.496;13.456;2023-03-04T02:42:06;101289.91;;;2.13;94.66
25759;BME280;13604;52.496;13.456;2023-03-04T02:44:34;101289.66;;;2.20;94.65
25759;BME280;13604;52.496;13.456;2023-03-04T02:47:00;101291.06;;;2.16;94.63
25759;BME280;13604;52.496;13.456;2023-03-04T02:49:27;101283.09;;;2.24;94.40
25759;BME280;13604;52.496;13.456;2023-03-04T02:54:24;101278.75;;;2.23;94.75
25759;BME280;13604;52.496;13.456;2023-03-04T02:56:52;101283.78;;;2.31;94.45
25759;BME280;13604;52.496;13.456;2023-03-04T02:59:18;101282.75;;;2.29;94.78
25759;BME280;13604;52.496;13.456;2023-03-04T03:01:44;101224.84;;;2.03;94.53
25759;BME280;13604;52.496;13.456;2023-03-04T03:04:10;101285.22;;;2.38;94.84
25759;BME280;13604;52.496;13.456;2023-03-04T03:06:35;101274.78;;;2.36;94.93
25759;BME280;13604;52.496;13.456;2023-03-04T03:09:00;101271.97;;;2.33;94.51
25759;BME280;13604;52.496;13.456;2023-03-04T03:11:26;101288.81;;;2.40;94.82
25759;BME280;13604;52.496;13.456;2023-03-04T03:13:51;101269.03;;;2.29;94.53
25759;BME280;13604;52.496;13.456;2023-03-04T03:16:16;101279.44;;;2.41;94.80
25759;BME280;13604;52.496;13.456;2023-03-04T03:18:42;101270.72;;;2.38;94.96
25759;BME280;13604;52.496;13.456;2023-03-04T03:21:07;101279.06;;;2.46;94.92
25759;BME280;13604;52.496;13.456;2023-03-04T03:23:33;101269.16;;;2.41;94.48
25759;BME280;13604;52.496;13.456;2023-03-04T03:25:58;101280.22;;;2.50;94.81
25759;BME280;13604;52.496;13.456;2023-03-04T03:28:23;101278.56;;;2.50;95.60
25759;BME280;13604;52.496;13.456;2023-03-04T03:30:49;101275.19;;;2.41;95.72
25759;BME280;13604;52.496;13.456;2023-03-04T03:33:14;101275.22;;;2.51;95.68
25759;BME280;13604;52.496;13.456;2023-03-04T03:35:39;101268.91;;;2.48;95.81
25759;BME280;13604;52.496;13.456;2023-03-04T03:38:05;101255.03;;;2.35;96.49
25759;BME280;13604;52.496;13.456;2023-03-04T03:40:30;101226.97;;;2.28;96.48
25759;BME280;13604;52.496;13.456;2023-03-04T03:42:55;101263.38;;;2.43;96.80
25759;BME280;13604;52.496;13.456;2023-03-04T03:45:21;101261.59;;;2.42;96.88
25759;BME280;13604;52.496;13.456;2023-03-04T03:47:46;101258.50;;;2.46;96.60
25759;BME280;13604;52.496;13.456;2023-03-04T03:50:11;101256.06;;;2.48;96.92
25759;BME280;13604;52.496;13.456;2023-03-04T03:52:37;101256.19;;;2.49;96.80
25759;BME280;13604;52.496;13.456;2023-03-04T03:55:02;101227.63;;;2.36;96.59
25759;BME280;13604;52.496;13.456;2023-03-04T03:57:28;101235.34;;;2.46;95.99
25759;BME280;13604;52.496;13.456;2023-03-04T03:59:54;101234.34;;;2.54;96.57
25759;BME280;13604;52.496;13.456;2023-03-04T04:02:19;101244.63;;;2.54;96.88
25759;BME280;13604;52.496;13.456;2023-03-04T04:04:44;101239.09;;;2.50;96.54
25759;BME280;13604;52.496;13.456;2023-03-04T04:07:10;101247.19;;;2.54;96.24
25759;BME280;13604;52.496;13.456;2023-03-04T04:09:35;101247.19;;;2.54;96.50
25759;BME280;13604;52.496;13.456;2023-03-04T04:12:00;101248.00;;;2.53;96.78
25759;BME280;13604;52.496;13.456;2023-03-04T04:14:25;101225.47;;;2.41;96.84
25759;BME280;13604;52.496;13.456;2023-03-04T04:16:51;101221.75;;;2.47;96.89
25759;BME280;13604;52.496;13.456;2023-03-04T04:19:17;101243.06;;;2.56;96.94
25759;BME280;13604;52.496;13.456;2023-03-04T04:21:43;101236.16;;;2.55;96.71
25759;BME280;13604;52.496;13.456;2023-03-04T04:24:08;101237.19;;;2.57;96.83
25759;BME280;13604;52.496;13.456;2023-03-04T04:26:34;101229.19;;;2.54;97.05
25759;BME280;13604;52.496;13.456;2023-03-04T04:28:59;101216.06;;;2.51;96.81
25759;BME280;13604;52.496;13.456;2023-03-04T04:31:24;101233.44;;;2.64;96.38
25759;BME280;13604;52.496;13.456;2023-03-04T04:33:50;101233.97;;;2.60;97.02
25759;BME280;13604;52.496;13.456;2023-03-04T04:36:15;101209.53;;;2.45;96.91
25759;BME280;13604;52.496;13.456;2023-03-04T04:38:40;101230.00;;;2.64;96.72
25759;BME280;13604;52.496;13.456;2023-03-04T04:41:22;101220.84;;;2.57;97.11
25759;BME280;13604;52.496;13.456;2023-03-04T04:43:48;101233.59;;;2.66;96.74
25759;BME280;13604;52.496;13.456;2023-03-04T04:46:14;101228.31;;;2.64;96.38
25759;BME280;13604;52.496;13.456;2023-03-04T04:48:40;101219.19;;;2.57;97.05
25759;BME280;13604;52.496;13.456;2023-03-04T04:51:05;101224.59;;;2.61;96.60
25759;BME280;13604;52.496;13.456;2023-03-04T04:53:30;101218.41;;;2.58;96.80
25759;BME280;13604;52.496;13.456;2023-03-04T04:55:56;101221.75;;;2.57;97.11
25759;BME280;13604;52.496;13.456;2023-03-04T04:58:21;101195.03;;;2.45;96.93
25759;BME280;13604;52.496;13.456;2023-03-04T05:00:47;101218.28;;;2.57;97.09
25759;BME280;13604;52.496;13.456;2023-03-04T05:03:12;101213.28;;;2.58;97.28
25759;BME280;13604;52.496;13.456;2023-03-04T05:05:37;101196.78;;;2.46;97.26
25759;BME280;13604;52.496;13.456;2023-03-04T05:08:03;101222.28;;;2.53;97.60
25759;BME280;13604;52.496;13.456;2023-03-04T05:10:28;101214.03;;;2.57;97.88
25759;BME280;13604;52.496;13.456;2023-03-04T05:12:53;101213.78;;;2.54;97.81
25759;BME280;13604;52.496;13.456;2023-03-04T05:15:19;101196.16;;;2.49;97.38
25759;BME280;13604;52.496;13.456;2023-03-04T05:17:44;101218.91;;;2.65;97.46
25759;BME280;13604;52.496;13.456;2023-03-04T05:20:10;101217.88;;;2.63;97.38
25759;BME280;13604;52.496;13.456;2023-03-04T05:22:35;101213.66;;;2.63;97.58
25759;BME280;13604;52.496;13.456;2023-03-04T05:25:00;101212.25;;;2.67;97.45
25759;BME280;13604;52.496;13.456;2023-03-04T05:27:26;101208.25;;;2.70;97.23
25759;BME280;13604;52.496;13.456;2023-03-04T05:29:51;101217.00;;;2.72;97.27
25759;BME280;13604;52.496;13.456;2023-03-04T05:32:17;101208.25;;;2.70;97.57
25759;BME280;13604;52.496;13.456;2023-03-04T05:34:42;101191.28;;;2.62;97.34
25759;BME280;13604;52.496;13.456;2023-03-04T05:37:07;101203.63;;;2.76;97.18
25759;BME280;13604;52.496;13.456;2023-03-04T05:39:33;101183.44;;;2.61;97.53
25759;BME280;13604;52.496;13.456;2023-03-04T05:41:58;101204.53;;;2.77;97.51
25759;BME280;13604;52.496;13.456;2023-03-04T05:44:23;101207.63;;;2.83;97.27
25759;BME280;13604;52.496;13.456;2023-03-04T05:46:49;101212.38;;;2.89;97.03
25759;BME280;13604;52.496;13.456;2023-03-04T05:49:14;101201.41;;;2.81;97.11
25759;BME280;13604;52.496;13.456;2023-03-04T05:51:39;101202.06;;;2.89;97.32
25759;BME280;13604;52.496;13.456;2023-03-04T05:54:04;101200.91;;;2.85;97.22
25759;BME280;13604;52.496;13.456;2023-03-04T05:56:30;101201.06;;;2.76;97.95
25759;BME280;13604;52.496;13.456;2023-03-04T05:58:58;101211.09;;;2.84;97.82
25759;BME280;13604;52.496;13.456;2023-03-04T06:01:23;101211.88;;;2.93;97.84
25759;BME280;13604;52.496;13.456;2023-03-04T06:03:49;101205.53;;;2.89;97.90
25759;BME280;13604;52.496;13.456;2023-03-04T06:06:14;101191.13;;;2.81;98.03
25759;BME280;13604;52.496;13.456;2023-03-04T06:08:39;101178.28;;;2.81;98.64
25759;BME280;13604;52.496;13.456;2023-03-04T06:11:05;101198.88;;;2.91;98.53
25759;BME280;13604;52.496;13.456;2023-03-04T06:13:30;101209.16;;;2.91;98.89
25759;BME280;13604;52.496;13.456;2023-03-04T06:15:57;101207.88;;;2.97;98.73
25759;BME280;13604;52.496;13.456;2023-03-04T06:18:24;101217.13;;;2.94;99.63
25759;BME280;13604;52.496;13.456;2023-03-04T06:20:50;101192.44;;;2.86;99.20
25759;BME280;13604;52.496;13.456;2023-03-04T06:23:16;101207.31;;;3.01;99.38
25759;BME280;13604;52.496;13.456;2023-03-04T06:25:41;101210.41;;;3.07;99.62
25759;BME280;13604;52.496;13.456;2023-03-04T06:28:06;101189.06;;;2.98;99.51
25759;BME280;13604;52.496;13.456;2023-03-04T06:30:32;101214.41;;;3.03;99.87
25759;BME280;13604;52.496;13.456;2023-03-04T06:32:57;101209.78;;;3.09;100.00
25759;BME280;13604;52.496;13.456;2023-03-04T06:35:22;101200.13;;;3.07;99.84
25759;BME280;13604;52.496;13.456;2023-03-04T06:37:48;101209.78;;;3.09;100.00
25759;BME280;13604;52.496;13.456;2023-03-04T06:40:13;101219.03;;;3.18;100.00
25759;BME280;13604;52.496;13.456;2023-03-04T06:42:39;101211.19;;;3.16;100.00
25759;BME280;13604;52.496;13.456;2023-03-04T06:45:05;101217.63;;;3.11;100.00
25759;BME280;13604;52.496;13.456;2023-03-04T06:47:31;101215.81;;;3.10;100.00
25759;BME280;13604;52.496;13.456;2023-03-04T06:49:57;101216.84;;;3.12;100.00
25759;BME280;13604;52.496;13.456;2023-03-04T06:52:22;101222.66;;;3.09;100.00
25759;BME280;13604;52.496;13.456;2023-03-04T06:54:47;101192.03;;;2.92;100.00
25759;BME280;13604;52.496;13.456;2023-03-04T06:57:13;101213.25;;;3.10;100.00
25759;BME280;13604;52.496;13.456;2023-03-04T06:59:38;101206.94;;;3.17;100.00
25759;BME280;13604;52.496;13.456;2023-03-04T07:02:04;101220.06;;;3.20;100.00
25759;BME280;13604;52.496;13.456;2023-03-04T07:04:29;101220.06;;;3.20;100.00
25759;BME280;13604;52.496;13.456;2023-03-04T07:06:55;101221.34;;;3.15;100.00
25759;BME280;13604;52.496;13.456;2023-03-04T07:09:20;101223.13;;;3.26;100.00
25759;BME280;13604;52.496;13.456;2023-03-04T07:11:45;101206.53;;;3.12;100.00
25759;BME280;13604;52.496;13.456;2023-03-04T07:14:11;101222.50;;;3.18;100.00
25759;BME280;13604;52.496;13.456;2023-03-04T07:16:36;101206.03;;;3.06;100.00
25759;BME280;13604;52.496;13.456;2023-03-04T07:19:01;101209.91;;;3.11;100.00
25759;BME280;13604;52.496;13.456;2023-03-04T07:21:27;101209.91;;;3.11;100.00
25759;BME280;13604;52.496;13.456;2023-03-04T07:23:52;101219.66;;;3.15;100.00
25759;BME280;13604;52.496;13.456;2023-03-04T07:26:18;101229.06;;;3.15;100.00
25759;BME280;13604;52.496;13.456;2023-03-04T07:28:44;101225.47;;;3.12;100.00
25759;BME280;13604;52.496;13.456;2023-03-04T07:31:23;101230.72;;;3.14;100.00
25759;BME280;13604;52.496;13.456;2023-03-04T07:33:50;101221.34;;;3.15;100.00
25759;BME280;13604;52.496;13.456;2023-03-04T07:36:16;101223.13;;;3.26;100.00
25759;BME280;13604;52.496;13.456;2023-03-04T07:38:45;101228.38;;;3.38;100.00
25759;BME280;13604;52.496;13.456;2023-03-04T07:41:11;101230.91;;;3.48;100.00
25759;BME280;13604;52.496;13.456;2023-03-04T07:43:36;101210.75;;;3.42;100.00
25759;BME280;13604;52.496;13.456;2023-03-04T07:46:01;101230.63;;;3.65;100.00
25759;BME280;13604;52.496;13.456;2023-03-04T07:48:27;101220.44;;;3.67;100.00
25759;BME280;13604;52.496;13.456;2023-03-04T07:51:07;101182.94;;;3.38;100.00
25759;BME280;13604;52.496;13.456;2023-03-04T07:53:33;101222.28;;;3.58;100.00
25759;BME280;13604;52.496;13.456;2023-03-04T07:55:59;101225.09;;;3.61;100.00
25759;BME280;13604;52.496;13.456;2023-03-04T07:58:24;101218.13;;;3.60;100.00
25759;BME280;13604;52.496;13.456;2023-03-04T08:00:50;101207.25;;;3.52;100.00
25759;BME280;13604;52.496;13.456;2023-03-04T08:03:15;101216.69;;;3.74;100.00
25759;BME280;13604;52.496;13.456;2023-03-04T08:05:40;101220.28;;;3.76;100.00
25759;BME280;13604;52.496;13.456;2023-03-04T08:08:05;101224.59;;;3.87;100.00
25759;BME280;13604;52.496;13.456;2023-03-04T08:10:31;101216.19;;;3.90;100.00
25759;BME280;13604;52.496;13.456;2023-03-04T08:12:56;101216.81;;;3.97;100.00
25759;BME280;13604;52.496;13.456;2023-03-04T08:15:21;101202.19;;;3.86;100.00
25759;BME280;13604;52.496;13.456;2023-03-04T08:17:47;101215.81;;;3.95;100.00
25759;BME280;13604;52.496;13.456;2023-03-04T08:20:12;101221.78;;;4.06;100.00
25759;BME280;13604;52.496;13.456;2023-03-04T08:22:37;101214.84;;;4.05;100.00
25759;BME280;13604;52.496;13.456;2023-03-04T08:25:03;101213.09;;;4.16;100.00
25759;BME280;13604;52.496;13.456;2023-03-04T08:27:28;101204.59;;;4.17;100.00
25759;BME280;13604;52.496;13.456;2023-03-04T08:29:53;101217.31;;;4.26;100.00
25759;BME280;13604;52.496;13.456;2023-03-04T08:32:19;101209.41;;;4.34;100.00
25759;BME280;13604;52.496;13.456;2023-03-04T08:34:45;101200.63;;;4.32;100.00
25759;BME280;13604;52.496;13.456;2023-03-04T08:37:11;101198.41;;;4.37;98.90
25759;BME280;13604;52.496;13.456;2023-03-04T08:39:36;101197.66;;;4.38;98.87
25759;BME280;13604;52.496;13.456;2023-03-04T08:42:02;101171.25;;;4.30;99.69
25759;BME280;13604;52.496;13.456;2023-03-04T08:44:27;101200.47;;;4.41;96.26
25759;BME280;13604;52.496;13.456;2023-03-04T08:46:52;101192.16;;;4.45;96.31
25759;BME280;13604;52.496;13.456;2023-03-04T08:49:18;101191.44;;;4.58;94.18
25759;BME280;13604;52.496;13.456;2023-03-04T08:51:43;101189.19;;;4.63;92.19
25759;BME280;13604;52.496;13.456;2023-03-04T08:54:09;101153.94;;;4.51;89.69
25759;BME280;13604;52.496;13.456;2023-03-04T08:56:34;101162.72;;;4.65;89.04
25759;BME280;13604;52.496;13.456;2023-03-04T08:59:00;101178.91;;;4.86;87.94
25759;BME280;13604;52.496;13.456;2023-03-04T09:01:25;101172.19;;;4.88;84.88
25759;BME280;13604;52.496;13.456;2023-03-04T09:03:51;101161.75;;;4.87;83.54
25759;BME280;13604;52.496;13.456;2023-03-04T09:06:16;101165.91;;;4.96;82.91
25759;BME280;13604;52.496;13.456;2023-03-04T09:08:43;101157.06;;;4.93;82.19
25759;BME280;13604;52.496;13.456;2023-03-04T09:11:09;101172.00;;;5.09;81.56
25759;BME280;13604;52.496;13.456;2023-03-04T09:13:35;101170.53;;;5.24;81.66
25759;BME280;13604;52.496;13.456;2023-03-04T09:16:00;101154.16;;;5.24;80.73
25759;BME280;13604;52.496;13.456;2023-03-04T09:18:26;101183.22;;;5.45;80.26
25759;BME280;13604;52.496;13.456;2023-03-04T09:20:52;101188.03;;;5.52;79.71
25759;BME280;13604;52.496;13.456;2023-03-04T09:23:18;101194.88;;;5.63;79.60
25759;BME280;13604;52.496;13.456;2023-03-04T09:25:45;101185.78;;;5.68;78.99
25759;BME280;13604;52.496;13.456;2023-03-04T09:28:15;101185.47;;;5.40;78.86
25759;BME280;13604;52.496;13.456;2023-03-04T09:30:41;101191.31;;;5.38;80.10
25759;BME280;13604;52.496;13.456;2023-03-04T09:33:06;101175.59;;;5.34;79.87
25759;BME280;13604;52.496;13.456;2023-03-04T09:35:31;101154.81;;;5.21;79.72
25759;BME280;13604;52.496;13.456;2023-03-04T09:37:57;101196.69;;;5.41;80.88
25759;BME280;13604;52.496;13.456;2023-03-04T09:40:29;101195.34;;;5.22;81.52
25759;BME280;13604;52.496;13.456;2023-03-04T09:42:59;101180.19;;;5.27;80.72
25759;BME280;13604;52.496;13.456;2023-03-04T09:45:35;101193.00;;;5.49;79.94
25759;BME280;13604;52.496;13.456;2023-03-04T09:48:02;101171.22;;;5.33;77.49
25759;BME280;13604;52.496;13.456;2023-03-04T09:50:32;101203.22;;;5.47;77.96
25759;BME280;13604;52.496;13.456;2023-03-04T09:53:05;101180.75;;;5.58;77.95
25759;BME280;13604;52.496;13.456;2023-03-04T09:55:33;101193.31;;;5.65;76.54
25759;BME280;13604;52.496;13.456;2023-03-04T10:00:45;101203.50;;;5.99;76.54
25759;BME280;13604;52.496;13.456;2023-03-04T10:03:17;101184.72;;;6.14;75.47
25759;BME280;13604;52.496;13.456;2023-03-04T10:05:54;101164.34;;;6.06;73.90
25759;BME280;13604;52.496;13.456;2023-03-04T10:10:57;101195.56;;;6.21;74.57
25759;BME280;13604;52.496;13.456;2023-03-04T10:13:50;101197.09;;;6.31;74.14
25759;BME280;13604;52.496;13.456;2023-03-04T10:16:21;101181.53;;;6.18;73.99
25759;BME280;13604;52.496;13.456;2023-03-04T10:18:52;101173.50;;;6.01;74.04
25759;BME280;13604;52.496;13.456;2023-03-04T10:21:26;101174.72;;;5.95;74.14
25759;BME280;13604;52.496;13.456;2023-03-04T10:23:55;101162.59;;;6.05;73.71
25759;BME280;13604;52.496;13.456;2023-03-04T10:26:21;101189.66;;;6.36;72.93
25759;BME280;13604;52.496;13.456;2023-03-04T10:28:47;101177.44;;;6.33;71.92
25759;BME280;13604;52.496;13.456;2023-03-04T10:31:19;101184.50;;;6.36;72.53
25759;BME280;13604;52.496;13.456;2023-03-04T10:33:47;101183.72;;;6.37;72.17
25759;BME280;13604;52.496;13.456;2023-03-04T10:38:52;101192.16;;;6.34;71.07
25759;BME280;13604;52.496;13.456;2023-03-04T10:41:23;101197.06;;;6.68;71.17
25759;BME280;13604;52.496;13.456;2023-03-04T10:44:11;101189.75;;;7.01;69.69
25759;BME280;13604;52.496;13.456;2023-03-04T10:46:44;101179.50;;;6.89;68.44
25759;BME280;13604;52.496;13.456;2023-03-04T10:49:10;101183.72;;;7.27;67.16
25759;BME280;13604;52.496;13.456;2023-03-04T10:51:46;101179.09;;;8.46;62.31
25759;BME280;13604;52.496;13.456;2023-03-04T10:54:22;101178.03;;;8.29;62.22
25759;BME280;13604;52.496;13.456;2023-03-04T10:56:55;101190.97;;;7.73;62.80
25759;BME280;13604;52.496;13.456;2023-03-04T10:59:38;101189.78;;;7.28;63.05
25759;BME280;13604;52.496;13.456;2023-03-04T11:02:17;101142.75;;;6.95;64.14
25759;BME280;13604;52.496;13.456;2023-03-04T11:04:55;101195.53;;;6.97;63.87
25759;BME280;13604;52.496;13.456;2023-03-04T11:07:23;101182.34;;;6.80;64.27
25759;BME280;13604;52.496;13.456;2023-03-04T11:09:48;101194.72;;;6.59;64.33
25759;BME280;13604;52.496;13.456;2023-03-04T11:12:16;101181.03;;;6.35;63.94
25759;BME280;13604;52.496;13.456;2023-03-04T11:14:50;101190.66;;;6.38;64.82
25759;BME280;13604;52.496;13.456;2023-03-04T11:17:26;101201.38;;;6.31;65.11
25759;BME280;13604;52.496;13.456;2023-03-04T11:20:03;101191.03;;;6.31;65.61
25759;BME280;13604;52.496;13.456;2023-03-04T11:22:29;101196.06;;;6.41;65.44
25759;BME280;13604;52.496;13.456;2023-03-04T11:25:02;101195.06;;;6.39;65.53
25759;BME280;13604;52.496;13.456;2023-03-04T11:27:36;101196.47;;;6.47;65.45
25759;BME280;13604;52.496;13.456;2023-03-04T11:30:26;101195.81;;;6.88;63.22
25759;BME280;13604;52.496;13.456;2023-03-04T11:32:56;101172.41;;;6.48;62.99
25759;BME280;13604;52.496;13.456;2023-03-04T11:35:27;101203.16;;;6.43;63.28
25759;BME280;13604;52.496;13.456;2023-03-04T11:38:03;101210.03;;;6.31;63.97
25759;BME280;13604;52.496;13.456;2023-03-04T11:40:44;101205.03;;;6.46;62.79
25759;BME280;13604;52.496;13.456;2023-03-04T11:43:12;101189.34;;;6.95;62.03
25759;BME280;13604;52.496;13.456;2023-03-04T11:48:36;101198.75;;;7.33;60.03
25759;BME280;13604;52.496;13.456;2023-03-04T11:51:30;101195.91;;;6.90;60.64
25759;BME280;13604;52.496;13.456;2023-03-04T11:56:46;101195.88;;;6.26;63.65
25759;BME280;13604;52.496;13.456;2023-03-04T12:02:18;101188.34;;;6.04;64.99
25759;BME280;13604;52.496;13.456;2023-03-04T12:10:32;101197.31;;;5.85;64.26
25759;BME280;13604;52.496;13.456;2023-03-04T12:18:56;101196.31;;;5.83;64.64
25759;BME280;13604;52.496;13.456;2023-03-04T12:25:06;101196.44;;;5.73;63.52
25759;BME280;13604;52.496;13.456;2023-03-04T12:30:50;101198.13;;;5.84;62.26
25759;BME280;13604;52.496;13.456;2023-03-04T12:33:32;101188.00;;;5.87;61.04
25759;BME280;13604;52.496;13.456;2023-03-04T12:41:38;101189.22;;;6.41;59.31
25759;BME280;13604;52.496;13.456;2023-03-04T12:44:16;101198.19;;;6.47;59.15
25759;BME280;13604;52.496;13.456;2023-03-04T12:49:40;101204.69;;;6.53;58.66
25759;BME280;13604;52.496;13.456;2023-03-04T12:55:07;101204.72;;;6.04;58.99
25759;BME280;13604;52.496;13.456;2023-03-04T12:57:34;101189.22;;;6.04;59.27
25759;BME280;13604;52.496;13.456;2023-03-04T13:02:50;101197.75;;;6.40;57.44
25759;BME280;13604;52.496;13.456;2023-03-04T13:05:43;101192.53;;;6.52;56.96
25759;BME280;13604;52.496;13.456;2023-03-04T13:11:49;101187.84;;;6.35;57.11
25759;BME280;13604;52.496;13.456;2023-03-04T13:14:00;101187.59;;;6.18;56.83
25759;BME280;13604;52.496;13.456;2023-03-04T13:16:56;101195.16;;;6.03;57.78
25759;BME280;13604;52.496;13.456;2023-03-04T13:22:44;101184.34;;;6.21;56.90
25759;BME280;13604;52.496;13.456;2023-03-04T13:41:19;101204.97;;;5.72;58.96
25759;BME280;13604;52.496;13.456;2023-03-04T13:43:55;101190.38;;;5.61;59.39
25759;BME280;13604;52.496;13.456;2023-03-04T13:51:38;101200.72;;;5.49;60.06
25759;BME280;13604;52.496;13.456;2023-03-04T13:54:14;101180.19;;;5.27;59.28
25759;BME280;13604;52.496;13.456;2023-03-04T13:57:09;101202.78;;;5.41;59.70
25759;BME280;13604;52.496;13.456;2023-03-04T13:59:52;101194.81;;;5.38;59.45
25759;BME280;13604;52.496;13.456;2023-03-04T14:02:21;101200.06;;;5.51;59.43
25759;BME280;13604;52.496;13.456;2023-03-04T14:12:35;101191.06;;;5.58;58.67
25759;BME280;13604;52.496;13.456;2023-03-04T14:15:18;101201.44;;;5.46;57.61
25759;BME280;13604;52.496;13.456;2023-03-04T14:17:48;101166.72;;;5.31;57.97
25759;BME280;13604;52.496;13.456;2023-03-04T14:20:33;101205.34;;;5.29;58.78